createdAt,value
2023-01-27T03:06:09.169Z,89735.34
2023-01-27T03:11:13.501Z,90252.22
2023-01-27T03:16:34.535Z,89993.75
2023-01-27T03:21:39.445Z,89993.75
2023-01-27T03:26:43.753Z,89993.75
2023-01-27T03:31:50.140Z,90252.22
2023-01-27T03:37:12.872Z,89735.34
2023-01-27T03:42:34.454Z,89993.75
2023-01-27T03:47:38.014Z,89476.91
2023-01-27T03:53:02.994Z,89735.34
2023-01-27T03:58:19.891Z,89735.34
2023-01-27T04:03:42.510Z,89993.75
2023-01-27T04:08:47.455Z,90252.22
2023-01-27T04:13:51.255Z,89735.34
2023-01-27T04:18:56.270Z,89735.34
2023-01-27T04:24:01.383Z,89476.91
2023-01-27T04:29:07.583Z,89476.91
2023-01-27T04:34:12.197Z,88960.13
2023-01-27T04:39:18.311Z,89476.91
2023-01-27T04:44:21.882Z,89218.50
2023-01-27T04:49:27.003Z,89218.50
2023-01-27T04:54:32.295Z,88701.75
2023-01-27T04:59:35.869Z,88701.75
2023-01-27T05:04:39.675Z,88701.75
2023-01-27T05:09:44.652Z,88443.41
2023-01-27T05:14:48.297Z,88185.06
2023-01-27T05:19:51.997Z,88443.41
2023-01-27T05:24:56.919Z,88443.41
2023-01-27T05:30:00.768Z,87926.75
2023-01-27T05:35:04.573Z,88185.06
2023-01-27T05:40:11.524Z,87151.91
2023-01-27T05:45:15.427Z,87151.91
2023-01-27T05:50:19.731Z,86893.66
2023-01-27T05:55:24.656Z,86635.41
2023-01-27T06:00:28.643Z,86119.00
2023-01-27T06:05:32.261Z,86377.19
2023-01-27T06:10:37.422Z,86635.41
2023-01-27T06:15:42.687Z,86635.41
2023-01-27T06:20:47.121Z,86635.41
2023-01-27T06:25:52.207Z,86377.19
2023-01-27T06:30:55.973Z,86635.41
2023-01-27T06:36:02.679Z,86377.19
2023-01-27T06:41:08.008Z,86119.00
2023-01-27T06:46:12.314Z,86635.41
2023-01-27T06:51:16.041Z,86377.19
2023-01-27T06:56:21.020Z,86377.19
2023-01-27T07:01:24.908Z,86635.41
2023-01-27T07:06:28.670Z,86119.00
2023-01-27T07:11:33.705Z,86377.19
2023-01-27T07:16:37.561Z,86377.19
2023-01-27T07:21:41.314Z,86377.19
2023-01-27T07:26:47.557Z,86635.41
2023-01-27T07:31:51.360Z,86893.66
2023-01-27T07:36:54.949Z,87151.91
2023-01-27T07:42:01.726Z,87410.16
2023-01-27T07:47:05.679Z,87410.16
2023-01-27T07:52:09.313Z,86119.00
2023-01-27T07:57:14.201Z,86635.41
2023-01-27T08:02:17.812Z,86635.41
2023-01-27T08:07:21.918Z,86893.66
2023-01-27T08:12:26.887Z,87151.91
2023-01-27T08:17:30.720Z,87151.91
2023-01-27T08:22:34.475Z,87151.91
2023-01-27T08:27:39.458Z,87668.47
2023-01-27T18:19:23.665Z,84312.03
2023-01-27T18:24:29.254Z,84053.97
2023-01-27T18:29:37.293Z,84570.13
2023-01-27T18:34:49.246Z,84570.13
2023-01-27T18:39:52.971Z,84053.97
2023-01-27T18:44:57.506Z,83795.94
2023-01-27T18:50:15.383Z,83279.88
2023-01-27T18:55:21.329Z,83537.88
2023-01-27T19:00:27.349Z,82763.88
2023-01-27T19:05:33.945Z,82505.91
2023-01-27T19:10:38.203Z,82247.97
2023-01-27T19:15:48.426Z,82247.97
2023-01-27T19:20:53.728Z,81990.03
2023-01-27T19:25:59.397Z,82247.97
2023-01-27T19:31:03.563Z,82247.97
2023-01-27T19:36:21.016Z,82505.91
2023-01-27T19:41:24.668Z,81990.03
2023-01-27T19:46:28.448Z,81990.03
2023-01-27T19:51:34.144Z,82505.91
2023-01-27T19:56:38.021Z,82505.91
2023-01-27T20:01:41.602Z,83021.88
2023-01-27T20:06:46.745Z,83021.88
2023-01-27T20:11:50.411Z,83021.88
2023-01-27T20:16:53.940Z,83021.88
2023-01-27T20:22:01.700Z,83279.88
2023-01-27T20:27:05.721Z,83021.88
2023-01-27T20:32:09.671Z,83279.88
2023-01-27T20:37:15.931Z,83279.88
2023-01-27T20:42:19.855Z,83021.88
2023-01-27T20:47:23.454Z,83021.88
2023-01-27T20:52:29.515Z,83279.88
2023-01-27T20:57:34.675Z,83537.88
2023-01-27T21:02:38.498Z,83537.88
2023-01-27T21:07:43.753Z,83537.88
2023-01-27T21:12:47.504Z,83795.94
2023-01-27T21:17:51.494Z,84053.97
2023-01-27T21:22:56.689Z,83795.94
2023-01-27T21:28:00.633Z,83537.88
2023-01-27T21:33:04.997Z,83537.88
2023-01-27T21:38:10.996Z,83279.88
2023-01-27T21:43:32.185Z,83279.88
2023-01-27T21:48:35.761Z,83021.88
2023-01-27T21:53:41.687Z,83021.88
2023-01-27T21:58:45.272Z,83021.88
2023-01-27T22:03:49.419Z,83279.88
2023-01-27T22:08:54.398Z,83279.88
2023-01-27T22:13:58.421Z,82763.88
2023-01-27T22:19:02.157Z,83021.88
2023-01-27T22:24:08.001Z,82763.88
2023-01-27T22:29:15.888Z,83279.88
2023-01-27T22:34:19.642Z,83279.88
2023-01-27T22:39:26.665Z,83795.94
2023-01-27T22:44:30.563Z,83537.88
2023-01-27T22:49:34.694Z,83795.94
2023-01-27T22:54:40.399Z,84053.97
2023-01-27T22:59:46.649Z,83537.88
2023-01-27T23:04:50.237Z,83021.88
2023-01-27T23:09:55.168Z,83537.88
2023-01-27T23:15:01.782Z,83279.88
2023-01-27T23:20:07.083Z,83021.88
2023-01-27T23:25:14.945Z,83021.88
2023-01-27T23:30:22.511Z,82505.91
2023-01-27T23:35:26.046Z,83021.88
2023-01-27T23:40:31.075Z,83021.88
2023-01-27T23:45:34.624Z,83279.88
2023-01-27T23:50:38.235Z,82505.91
2023-01-27T23:55:43.516Z,82763.88
